Roseland, Illinois
Current Conditions -  °F | °C
As of 9:53 AM on Friday 28 Nov 2014 (Local Time) from KMDW Reporting Station
Overcast Overcast  
Wind Chill: 14°   Ceiling: 15000
Heat Index: 25°   Visibility: 10mi
Dew Point: 15°   Wind: 12mph
Humidity: 66%   Direction: 170°S
Pressure: 30.23"   Gusts: NA
Location:  41.6907°N, 87.6161°W
Report Text: KMDW 281553Z 17010KT 10SM FEW100 OVC150 M04/M09 A3023 RMK AO2 SLP254 T10391094 $
Loading
Personal Weather Stations






























Interactive Weather Map New forecast layout! Learn more

10-Day Weather Forecast

Advertisements
Track Severe Weather on mobile